MiSS Caroline — WDH3754 — position and weather

sailwx.info

Track history (hours):
 
Tides and Currents Weather Stations Pressure Air Temp Water Temp Dewpoint Dewpoint Depression Visibility Wind Speed Wind Dir Waves Ship Positions

MiSS Caroline

Owner: Central Boat Rentals, Inc, Berwick, LA. More information available from US FCC via Universal Licensing System and Coast Guard Vessel Documentation Center.

Last reported at 2018-May-23 11:40 UTC. Time now 2018-May-23 23:56 UTC.
Position N 31°42' W 091°24'.

Length 22 m; draft 2.7 m.

Type: Tug. MMSI: 367610550.

Date/timePositionNaut miles runAvg speedWind from/ knotsBaromVisibWave heightAir tempDewpointWater temp
2018-May-23 11:40N 31°42' W 091°24'211.2
2018-May-23 11:28N 31°44' W 091°22'511.5
2018-May-23 11:00N 31°49' W 091°21'1210.0
2018-May-23 09:49N 31°58' W 091°11'410.3
2018-May-23 09:27N 31°59' W 091°07'511.1
2018-May-23 09:00N 32°03' W 091°03'510.3
2018-May-23 08:30N 32°08' W 091°06'5 9.2
2018-May-23 08:00N 32°08' W 091°01'611.4
2018-May-23 07:30N 32°13' W 090°59'511.0
2018-May-23 07:00N 32°18' W 090°55'6 6.2
2018-May-23 05:59N 32°23' W 091°00'4 9.1
2018-May-23 05:30N 32°26' W 091°03'510.3
2018-May-23 05:00N 32°30' W 091°07'510.1
2018-May-23 04:30N 32°35' W 091°08'5 9.6
2018-May-23 04:00N 32°40' W 091°07'5 9.5
2018-May-23 03:30N 32°44' W 091°04'510.1
2018-May-23 03:00N 32°46' W 091°09'611.1
2018-May-23 02:30N 32°51' W 091°07'  
2018-May-18 09:46N 32°51' W 091°07'10 2.2
2018-May-18 05:07N 32°41' W 091°05'2 1.5
2018-May-18 04:05N 32°40' W 091°07'1 4.7
2018-May-18 03:53N 32°40' W 091°08'3 4.8
2018-May-18 03:12N 32°37' W 091°09'1 4.8
2018-May-18 03:00N 32°36' W 091°09'3 4.9
2018-May-18 02:29N 32°34' W 091°06'2 4.7
2018-May-18 02:00N 32°32' W 091°06'3 5.1
2018-May-18 01:30N 32°30' W 091°07'2 4.8
2018-May-18 01:00N 32°28' W 091°06'2 5.0
2018-May-18 00:30N 32°26' W 091°03'2 5.0
2018-May-18 00:00N 32°25' W 091°00'2 4.1
2018-May-17 23:30N 32°23' W 090°60'2 4.3
2018-May-17 23:00N 32°21' W 090°60'2 4.9
2018-May-17 22:30N 32°21' W 090°57'2 4.5
2018-May-17 22:00N 32°20' W 090°54'2 3.2
2018-May-17 21:30N 32°18' W 090°55'2 4.3
2018-May-17 21:00N 32°17' W 090°57'2 4.7
2018-May-17 20:30N 32°15' W 090°58'3 5.4
2018-May-17 20:00N 32°13' W 090°59'2 4.9
2018-May-17 19:30N 32°10' W 090°60'2 4.9
2018-May-17 19:00N 32°08' W 091°00'2 4.0
2018-May-17 18:24N 32°08' W 091°03'2 4.6
2018-May-17 18:00N 32°08' W 091°05'2 3.3
2018-May-17 17:30N 32°06' W 091°06'4 5.3
2018-May-17 16:48N 32°03' W 091°03'2 5.1
2018-May-17 16:30N 32°02' W 091°04'  
2018-May-14 14:35N 29°50' W 092°18'3 3.8
2018-May-14 13:52N 29°51' W 092°21'1 4.2
2018-May-14 13:30N 29°52' W 092°22'2 4.8
2018-May-14 13:00N 29°53' W 092°25'1 1.3
2018-May-14 12:27N 29°53' W 092°25'0 0.0
2018-May-14 12:00N 29°53' W 092°25'0 0.1
2018-May-14 11:30N 29°53' W 092°25'0 0.1
2018-May-14 11:00N 29°53' W 092°26'1 1.9
2018-May-14 10:30N 29°53' W 092°27'2 3.2
2018-May-14 09:57N 29°54' W 092°29'1 1.3
2018-May-14 09:30N 29°54' W 092°29'2 4.2
2018-May-14 09:00N 29°54' W 092°32'6 5.2
2018-May-14 07:49N 29°56' W 092°39'1 4.3
2018-May-14 07:29N 29°56' W 092°40'2 4.1
2018-May-14 06:57N 29°57' W 092°43'4 5.1
2018-May-14 06:05N 29°58' W 092°47'13 3.8
2018-May-14 02:42N 29°56' W 093°02'1 4.8
2018-May-14 02:29N 29°56' W 093°03'2 4.5
2018-May-14 02:00N 29°56' W 093°06'2 4.7
2018-May-14 01:30N 29°56' W 093°08'2 4.4
2018-May-14 01:00N 29°57' W 093°11'2 4.8
2018-May-14 00:30N 29°59' W 093°12'2 4.5
2018-May-14 00:00N 30°01' W 093°14'1 2.9
2018-May-13 23:30N 30°02' W 093°15'2 3.8
2018-May-13 23:00N 30°04' W 093°16'1 1.2
2018-May-13 22:30N 30°04' W 093°16'2 3.5
2018-May-13 22:00N 30°05' W 093°18'1 2.0
2018-May-13 21:29N 30°06' W 093°18'2 4.1
2018-May-13 21:00N 30°05' W 093°20'2 3.4
2018-May-13 20:30N 30°04' W 093°22'2 4.5
2018-May-13 20:00N 30°04' W 093°24'0 0.2
2018-May-13 19:30N 30°04' W 093°24'3 5.1
2018-May-13 19:00N 30°04' W 093°27'3 5.3
2018-May-13 18:30N 30°04' W 093°30'3 5.3
2018-May-13 18:00N 30°04' W 093°33'3 5.4
2018-May-13 17:30N 30°04' W 093°36'3 5.6
2018-May-13 17:00N 30°04' W 093°40'3 5.5
2018-May-13 16:30N 30°03' W 093°43'2 4.5
2018-May-13 16:00N 30°01' W 093°44'3 5.5
2018-May-13 15:30N 29°60' W 093°47'3 6.4
2018-May-13 15:00N 29°59' W 093°50'2 4.5
2018-May-13 14:30N 29°57' W 093°52'1 1.6
2018-May-13 14:00N 29°58' W 093°52'0 0.2
2018-May-13 13:30N 29°57' W 093°52'0 0.3
2018-May-13 13:00N 29°57' W 093°52'1 2.3
2018-May-13 12:30N 29°58' W 093°52'4 7.2
2018-May-13 12:00N 29°59' W 093°56'  
Track history (hours):
 
Tides and Currents Weather Stations Pressure Air Temp Water Temp Dewpoint Dewpoint Depression Visibility Wind Speed Wind Dir Waves Ship Positions

MiSS Caroline

Owner: Central Boat Rentals, Inc, Berwick, LA. More information available from US FCC via Universal Licensing System and Coast Guard Vessel Documentation Center.

Last reported at 2018-May-23 11:40 UTC. Time now 2018-May-23 23:56 UTC.
Position N 31°42' W 091°24'.

Length 22 m; draft 2.7 m.

Type: Tug. MMSI: 367610550.

Date/timePositionNaut miles runAvg speedWind from/ knotsBaromVisibWave heightAir tempDewpointWater temp
2018-May-23 11:40N 31°42' W 091°24'211.2
2018-May-23 11:28N 31°44' W 091°22'511.5
2018-May-23 11:00N 31°49' W 091°21'1210.0
2018-May-23 09:49N 31°58' W 091°11'410.3
2018-May-23 09:27N 31°59' W 091°07'511.1
2018-May-23 09:00N 32°03' W 091°03'510.3
2018-May-23 08:30N 32°08' W 091°06'5 9.2
2018-May-23 08:00N 32°08' W 091°01'611.4
2018-May-23 07:30N 32°13' W 090°59'511.0
2018-May-23 07:00N 32°18' W 090°55'6 6.2
2018-May-23 05:59N 32°23' W 091°00'4 9.1
2018-May-23 05:30N 32°26' W 091°03'510.3
2018-May-23 05:00N 32°30' W 091°07'510.1
2018-May-23 04:30N 32°35' W 091°08'5 9.6
2018-May-23 04:00N 32°40' W 091°07'5 9.5
2018-May-23 03:30N 32°44' W 091°04'510.1
2018-May-23 03:00N 32°46' W 091°09'611.1
2018-May-23 02:30N 32°51' W 091°07'  
2018-May-18 09:46N 32°51' W 091°07'10 2.2
2018-May-18 05:07N 32°41' W 091°05'2 1.5
2018-May-18 04:05N 32°40' W 091°07'1 4.7
2018-May-18 03:53N 32°40' W 091°08'3 4.8
2018-May-18 03:12N 32°37' W 091°09'1 4.8
2018-May-18 03:00N 32°36' W 091°09'3 4.9
2018-May-18 02:29N 32°34' W 091°06'2 4.7
2018-May-18 02:00N 32°32' W 091°06'3 5.1
2018-May-18 01:30N 32°30' W 091°07'2 4.8
2018-May-18 01:00N 32°28' W 091°06'2 5.0
2018-May-18 00:30N 32°26' W 091°03'2 5.0
2018-May-18 00:00N 32°25' W 091°00'2 4.1
2018-May-17 23:30N 32°23' W 090°60'2 4.3
2018-May-17 23:00N 32°21' W 090°60'2 4.9
2018-May-17 22:30N 32°21' W 090°57'2 4.5
2018-May-17 22:00N 32°20' W 090°54'2 3.2
2018-May-17 21:30N 32°18' W 090°55'2 4.3
2018-May-17 21:00N 32°17' W 090°57'2 4.7
2018-May-17 20:30N 32°15' W 090°58'3 5.4
2018-May-17 20:00N 32°13' W 090°59'2 4.9
2018-May-17 19:30N 32°10' W 090°60'2 4.9
2018-May-17 19:00N 32°08' W 091°00'2 4.0
2018-May-17 18:24N 32°08' W 091°03'2 4.6
2018-May-17 18:00N 32°08' W 091°05'2 3.3
2018-May-17 17:30N 32°06' W 091°06'4 5.3
2018-May-17 16:48N 32°03' W 091°03'2 5.1
2018-May-17 16:30N 32°02' W 091°04'  
2018-May-14 14:35N 29°50' W 092°18'3 3.8
2018-May-14 13:52N 29°51' W 092°21'1 4.2
2018-May-14 13:30N 29°52' W 092°22'2 4.8
2018-May-14 13:00N 29°53' W 092°25'1 1.3
2018-May-14 12:27N 29°53' W 092°25'0 0.0
2018-May-14 12:00N 29°53' W 092°25'0 0.1
2018-May-14 11:30N 29°53' W 092°25'0 0.1
2018-May-14 11:00N 29°53' W 092°26'1 1.9
2018-May-14 10:30N 29°53' W 092°27'2 3.2
2018-May-14 09:57N 29°54' W 092°29'1 1.3
2018-May-14 09:30N 29°54' W 092°29'2 4.2
2018-May-14 09:00N 29°54' W 092°32'6 5.2
2018-May-14 07:49N 29°56' W 092°39'1 4.3
2018-May-14 07:29N 29°56' W 092°40'2 4.1
2018-May-14 06:57N 29°57' W 092°43'4 5.1
2018-May-14 06:05N 29°58' W 092°47'13 3.8
2018-May-14 02:42N 29°56' W 093°02'1 4.8
2018-May-14 02:29N 29°56' W 093°03'2 4.5
2018-May-14 02:00N 29°56' W 093°06'2 4.7
2018-May-14 01:30N 29°56' W 093°08'2 4.4
2018-May-14 01:00N 29°57' W 093°11'2 4.8
2018-May-14 00:30N 29°59' W 093°12'2 4.5
2018-May-14 00:00N 30°01' W 093°14'1 2.9
2018-May-13 23:30N 30°02' W 093°15'2 3.8
2018-May-13 23:00N 30°04' W 093°16'1 1.2
2018-May-13 22:30N 30°04' W 093°16'2 3.5
2018-May-13 22:00N 30°05' W 093°18'1 2.0
2018-May-13 21:29N 30°06' W 093°18'2 4.1
2018-May-13 21:00N 30°05' W 093°20'2 3.4
2018-May-13 20:30N 30°04' W 093°22'2 4.5
2018-May-13 20:00N 30°04' W 093°24'0 0.2
2018-May-13 19:30N 30°04' W 093°24'3 5.1
2018-May-13 19:00N 30°04' W 093°27'3 5.3
2018-May-13 18:30N 30°04' W 093°30'3 5.3
2018-May-13 18:00N 30°04' W 093°33'3 5.4
2018-May-13 17:30N 30°04' W 093°36'3 5.6
2018-May-13 17:00N 30°04' W 093°40'3 5.5
2018-May-13 16:30N 30°03' W 093°43'2 4.5
2018-May-13 16:00N 30°01' W 093°44'3 5.5
2018-May-13 15:30N 29°60' W 093°47'3 6.4
2018-May-13 15:00N 29°59' W 093°50'2 4.5
2018-May-13 14:30N 29°57' W 093°52'1 1.6
2018-May-13 14:00N 29°58' W 093°52'0 0.2
2018-May-13 13:30N 29°57' W 093°52'0 0.3
2018-May-13 13:00N 29°57' W 093°52'1 2.3
2018-May-13 12:30N 29°58' W 093°52'4 7.2
2018-May-13 12:00N 29°59' W 093°56'  

Dump ship's entire track history